createdAt,value
2019-03-30T00:00:55.094Z,11.87
2019-03-30T00:03:31.814Z,11.67
2019-03-30T00:06:09.848Z,11.50
2019-03-30T00:08:55.059Z,12.07
2019-03-30T00:14:36.828Z,10.53
2019-03-30T00:17:14.043Z,10.93
2019-03-30T00:19:52.159Z,11.50
2019-03-30T00:22:27.179Z,13.00
2019-03-30T00:25:02.971Z,13.47
2019-03-30T00:27:49.987Z,13.87
2019-03-30T00:35:55.233Z,12.30
2019-03-30T00:37:19.181Z,12.90
2019-03-30T00:42:27.945Z,12.17
2019-03-30T00:44:56.804Z,15.73
2019-03-30T00:50:30.553Z,15.83
2019-03-30T00:53:02.438Z,14.97
2019-03-30T00:55:36.725Z,14.63
2019-03-30T00:58:08.261Z,17.20
2019-03-30T01:00:43.016Z,16.20
2019-03-30T01:03:21.381Z,15.23
2019-03-30T01:05:59.251Z,14.90
2019-03-30T01:08:35.998Z,14.53
2019-03-30T01:11:13.708Z,13.43
2019-03-30T01:13:55.420Z,13.67
2019-03-30T01:19:20.457Z,14.10
2019-03-30T01:21:58.926Z,13.87
2019-03-30T01:24:42.770Z,16.00
2019-03-30T01:27:14.836Z,15.77
2019-03-30T01:29:54.846Z,15.43
2019-03-30T01:32:29.458Z,16.63
2019-03-30T01:35:09.008Z,14.90
2019-03-30T01:37:45.680Z,14.23
2019-03-30T01:40:32.568Z,15.20
2019-03-30T01:43:11.378Z,14.60
2019-03-30T01:51:55.431Z,12.80
2019-03-30T01:54:38.085Z,16.50
2019-03-30T01:57:12.368Z,17.10
2019-03-30T02:15:10.566Z,15.63
2019-03-30T02:17:58.157Z,16.63
2019-03-30T02:20:33.783Z,16.00
2019-03-30T02:23:09.032Z,16.33
2019-03-30T02:25:51.553Z,17.93
2019-03-30T02:28:27.807Z,18.60
2019-03-30T02:34:13.424Z,16.60
2019-03-30T02:40:04.861Z,16.13
2019-03-30T02:42:41.397Z,15.10
2019-03-30T02:46:40.809Z,14.57
2019-03-30T02:48:36.902Z,15.77
2019-03-30T02:54:11.639Z,16.13
2019-03-30T02:56:43.553Z,15.97
2019-03-30T02:59:17.942Z,16.37
2019-03-30T03:01:52.181Z,15.57
2019-03-30T03:04:26.538Z,16.60
2019-03-30T03:06:59.961Z,14.57
2019-03-30T03:09:36.359Z,15.77
2019-03-30T03:12:12.946Z,15.93
2019-03-30T03:18:01.478Z,16.30
2019-03-30T03:20:39.441Z,15.97
2019-03-30T03:23:19.147Z,16.40
2019-03-30T03:25:57.978Z,14.87
2019-03-30T03:28:31.108Z,14.80
2019-03-30T03:31:15.539Z,15.87
2019-03-30T03:33:47.002Z,15.00
2019-03-30T03:36:20.625Z,14.37
2019-03-30T03:38:58.990Z,14.43
2019-03-30T03:41:32.971Z,15.13
2019-03-30T03:44:06.772Z,15.63
2019-03-30T03:49:32.961Z,15.03
2019-03-30T03:52:23.380Z,14.53
2019-03-30T03:55:31.669Z,12.17
2019-03-30T03:57:56.267Z,10.43
2019-03-30T04:00:48.878Z,10.90
2019-03-30T04:06:35.559Z,13.53
2019-03-30T04:12:25.879Z,14.40
2019-03-30T04:15:09.769Z,14.50
2019-03-30T04:17:47.188Z,14.43
2019-03-30T04:20:23.129Z,20.03
2019-03-30T04:24:12.419Z,21.60
2019-03-30T04:26:37.197Z,17.80
2019-03-30T04:28:34.875Z,17.97
2019-03-30T04:31:15.115Z,19.13
2019-03-30T04:33:48.953Z,20.63
2019-03-30T04:36:27.387Z,17.50
2019-03-30T04:39:07.339Z,15.80
2019-03-30T04:41:42.892Z,15.93
2019-03-30T04:44:13.352Z,18.40
2019-03-30T04:46:45.969Z,16.77
2019-03-30T04:49:23.750Z,17.93
2019-03-30T04:52:01.354Z,17.47
2019-03-30T04:56:13.599Z,19.57
2019-03-30T05:00:41.066Z,18.53
2019-03-30T05:06:08.563Z,18.17
2019-03-30T05:08:48.659Z,19.23
2019-03-30T05:11:27.492Z,19.40
2019-03-30T05:14:02.783Z,18.33
2019-03-30T05:16:44.236Z,19.47
2019-03-30T05:19:21.556Z,20.33
2019-03-30T05:21:55.086Z,17.80
2019-03-30T05:24:34.574Z,19.53
2019-03-30T05:29:58.722Z,20.33
2019-03-30T05:32:41.485Z,18.60
2019-03-30T05:35:44.886Z,17.70
2019-03-30T05:38:21.896Z,18.10
2019-03-30T05:40:53.726Z,17.93
2019-03-30T05:43:30.113Z,19.27
2019-03-30T05:51:53.493Z,20.53
2019-03-30T05:54:30.003Z,19.80
2019-03-30T06:03:26.029Z,17.77
2019-03-30T06:09:15.618Z,20.47
2019-03-30T06:11:53.960Z,19.70
2019-03-30T06:14:41.198Z,19.67
2019-03-30T06:17:22.954Z,18.90
2019-03-30T06:20:01.016Z,20.30
2019-03-30T06:22:40.267Z,18.07
2019-03-30T06:25:10.829Z,17.03
2019-03-30T06:27:49.336Z,17.50
2019-03-30T06:30:26.571Z,18.83
2019-03-30T06:33:00.319Z,17.00
2019-03-30T06:35:41.331Z,15.73
2019-03-30T06:38:14.305Z,15.43
2019-03-30T06:40:57.844Z,15.40
2019-03-30T06:43:31.628Z,15.10
2019-03-30T06:46:25.881Z,13.30
2019-03-30T06:54:29.942Z,14.53
2019-03-30T07:00:21.234Z,14.50
2019-03-30T07:03:04.750Z,13.77
2019-03-30T07:05:42.242Z,14.03
2019-03-30T07:08:22.905Z,14.83
2019-03-30T07:11:02.667Z,16.47
2019-03-30T07:13:35.595Z,15.77
2019-03-30T07:16:15.729Z,15.80
2019-03-30T07:18:51.868Z,17.97
2019-03-30T07:21:29.167Z,18.47
2019-03-30T07:24:10.951Z,18.00
2019-03-30T07:26:42.695Z,21.87
2019-03-30T07:29:21.100Z,18.43
2019-03-30T07:34:46.748Z,21.17
2019-03-30T07:40:25.073Z,23.37
2019-03-30T07:43:21.027Z,22.37
2019-03-30T07:46:56.359Z,20.27
2019-03-30T07:51:58.510Z,23.07
2019-03-30T07:54:41.066Z,26.63
2019-03-30T07:57:16.816Z,26.43
2019-03-30T07:59:46.087Z,28.03
2019-03-30T08:02:20.809Z,28.67
2019-03-30T08:04:58.964Z,30.17
2019-03-30T08:07:34.333Z,27.17
2019-03-30T08:10:08.847Z,28.33
2019-03-30T08:12:43.019Z,29.10
2019-03-30T08:15:15.815Z,27.80
2019-03-30T08:17:56.197Z,27.87
2019-03-30T08:20:27.236Z,27.33
2019-03-30T08:23:19.306Z,28.80
2019-03-30T08:25:52.885Z,22.50
2019-03-30T08:28:24.324Z,22.97
2019-03-30T08:31:02.873Z,26.10
2019-03-30T08:33:47.438Z,22.10
2019-03-30T08:36:20.586Z,26.47
2019-03-30T08:39:27.563Z,26.23
2019-03-30T08:42:19.453Z,28.50
2019-03-30T08:45:01.881Z,27.60
2019-03-30T08:47:34.491Z,27.83
2019-03-30T08:53:03.647Z,25.50
2019-03-30T08:55:38.905Z,26.07
2019-03-30T08:58:22.933Z,26.03
2019-03-30T09:00:52.529Z,25.67
2019-03-30T09:03:26.761Z,23.87
2019-03-30T09:06:03.141Z,25.13
2019-03-30T09:08:38.261Z,27.97
2019-03-30T09:11:14.040Z,23.27
2019-03-30T09:29:20.252Z,22.40
2019-03-30T09:31:57.853Z,20.87
2019-03-30T09:40:46.318Z,26.20
2019-03-30T09:43:25.890Z,26.23
2019-03-30T09:49:18.758Z,22.40
2019-03-30T09:52:12.472Z,23.47
2019-03-30T09:54:53.654Z,25.87
2019-03-30T09:57:35.678Z,28.00
2019-03-30T10:00:36.896Z,23.87
2019-03-30T10:06:13.447Z,22.60
2019-03-30T10:08:48.250Z,25.00
2019-03-30T10:11:19.733Z,24.77
2019-03-30T10:13:58.885Z,21.20
2019-03-30T10:16:32.690Z,24.47
2019-03-30T10:19:05.308Z,19.87
2019-03-30T10:21:45.571Z,18.60
2019-03-30T10:27:10.138Z,17.63
2019-03-30T10:29:43.591Z,18.00
2019-03-30T10:32:24.419Z,20.30
2019-03-30T10:34:55.115Z,24.60
2019-03-30T10:37:26.742Z,26.13
2019-03-30T10:39:56.580Z,20.30
2019-03-30T10:42:27.624Z,20.90
2019-03-30T10:44:57.459Z,19.60
2019-03-30T10:47:40.664Z,19.87
2019-03-30T10:53:10.912Z,23.43
2019-03-30T10:55:52.878Z,22.07
2019-03-30T10:58:30.645Z,26.17
2019-03-30T11:01:00.419Z,21.17
2019-03-30T11:03:47.295Z,21.40
2019-03-30T11:06:25.101Z,20.20
2019-03-30T11:08:56.659Z,20.23
2019-03-30T11:11:27.457Z,20.80
2019-03-30T11:13:59.703Z,18.53
2019-03-30T11:16:29.507Z,24.23
2019-03-30T11:19:02.270Z,20.90
2019-03-30T11:21:33.381Z,17.63
2019-03-30T11:24:06.546Z,19.83
2019-03-30T11:26:42.235Z,21.57
2019-03-30T11:29:47.113Z,17.50
2019-03-30T11:32:11.395Z,23.63
2019-03-30T11:34:50.490Z,15.80
2019-03-30T11:37:22.273Z,18.17
2019-03-30T11:39:53.447Z,14.23
2019-03-30T11:42:32.378Z,15.70
2019-03-30T11:45:10.933Z,21.82
2019-03-30T11:47:46.891Z,15.10
2019-03-30T11:50:19.432Z,14.05
2019-03-30T11:52:52.412Z,17.98
2019-03-30T11:55:24.533Z,20.23
2019-03-30T11:57:58.912Z,17.25
2019-03-30T12:00:32.646Z,17.75
2019-03-30T12:03:25.300Z,13.18
2019-03-30T12:06:11.553Z,18.87
2019-03-30T12:10:28.734Z,13.38
2019-03-30T12:14:23.165Z,26.60
2019-03-30T12:16:58.507Z,21.90
2019-03-30T12:19:48.435Z,12.40
2019-03-30T12:22:22.905Z,11.43
2019-03-30T12:24:54.934Z,11.05
2019-03-30T12:27:28.062Z,14.60
2019-03-30T12:30:02.662Z,12.20
2019-03-30T12:32:35.898Z,12.13
2019-03-30T12:35:07.566Z,15.18
2019-03-30T12:37:40.937Z,15.08
2019-03-30T12:40:13.114Z,12.37
2019-03-30T12:42:45.991Z,9.28
2019-03-30T12:45:21.492Z,13.25
2019-03-30T12:48:20.093Z,16.77
2019-03-30T12:50:40.769Z,12.73
2019-03-30T12:53:15.353Z,17.02
2019-03-30T12:56:01.381Z,15.53
2019-03-30T12:58:41.429Z,11.65
2019-03-30T13:01:15.729Z,12.50
2019-03-30T13:03:51.678Z,11.53
2019-03-30T13:06:28.870Z,11.28
2019-03-30T13:09:11.567Z,11.60
2019-03-30T13:11:51.498Z,11.53
2019-03-30T13:14:24.977Z,9.93
2019-03-30T13:16:55.255Z,13.20
2019-03-30T13:19:29.540Z,10.32
2019-03-30T13:22:04.823Z,12.33
2019-03-30T13:24:35.894Z,13.15
2019-03-30T13:27:12.937Z,17.25
2019-03-30T13:29:45.369Z,12.13
2019-03-30T13:32:15.241Z,10.10
2019-03-30T13:34:47.202Z,6.97
2019-03-30T13:37:20.133Z,9.60
2019-03-30T13:39:56.219Z,12.63
2019-03-30T13:42:39.055Z,7.95
2019-03-30T13:45:15.130Z,10.80
2019-03-30T13:47:50.115Z,9.40
2019-03-30T13:50:25.639Z,7.08
2019-03-30T13:53:01.608Z,9.38
2019-03-30T13:55:35.640Z,7.45
2019-03-30T13:58:10.883Z,6.50
2019-03-30T14:03:43.077Z,5.90
2019-03-30T14:06:31.064Z,6.22
2019-03-30T14:09:03.416Z,7.67
2019-03-30T14:11:36.559Z,4.83
2019-03-30T14:14:08.225Z,5.75
2019-03-30T14:16:55.939Z,6.92
2019-03-30T14:19:38.047Z,6.37
2019-03-30T14:22:14.094Z,7.15
2019-03-30T14:24:48.066Z,8.40
2019-03-30T14:27:31.750Z,6.80
2019-03-30T14:30:17.542Z,6.33
2019-03-30T14:32:54.601Z,8.60
2019-03-30T14:35:31.198Z,6.60
2019-03-30T14:38:03.288Z,6.95
2019-03-30T14:43:32.120Z,7.78
2019-03-30T14:46:10.107Z,5.80
2019-03-30T14:48:49.920Z,6.37
2019-03-30T14:51:33.035Z,5.80
2019-03-30T14:54:26.969Z,6.30
2019-03-30T14:57:12.610Z,7.87
2019-03-30T14:59:52.362Z,7.58
2019-03-30T15:03:40.070Z,5.30
2019-03-30T15:05:49.910Z,7.40
2019-03-30T15:08:25.595Z,7.67
2019-03-30T15:11:05.214Z,6.47
2019-03-30T15:16:52.984Z,6.87
2019-03-30T15:25:51.560Z,5.53
2019-03-30T15:28:34.906Z,4.50
2019-03-30T15:40:19.767Z,7.58
2019-03-30T15:42:53.496Z,8.53
2019-03-30T15:45:26.694Z,6.33
2019-03-30T15:48:05.201Z,4.33
2019-03-30T15:50:38.272Z,5.20
2019-03-30T15:56:09.815Z,5.33
2019-03-30T15:58:57.869Z,4.95
2019-03-30T16:04:26.047Z,5.30
2019-03-30T16:07:01.810Z,6.53
2019-03-30T16:09:41.720Z,5.95
2019-03-30T16:12:13.255Z,5.33
2019-03-30T16:14:49.559Z,6.17
2019-03-30T16:17:36.241Z,6.07
2019-03-30T16:20:48.274Z,6.20
2019-03-30T16:26:25.512Z,7.07
2019-03-30T16:29:04.149Z,5.20
2019-03-30T16:31:41.803Z,5.33
2019-03-30T16:34:17.261Z,4.47
2019-03-30T16:39:45.547Z,5.63
2019-03-30T16:42:22.657Z,5.43
2019-03-30T16:45:01.939Z,5.00
2019-03-30T16:47:34.620Z,4.80
2019-03-30T16:50:31.446Z,4.83
2019-03-30T16:53:11.097Z,5.67
2019-03-30T16:55:51.958Z,5.70
2019-03-30T17:01:22.654Z,4.90
2019-03-30T17:07:00.814Z,6.70
2019-03-30T17:09:37.659Z,6.87
2019-03-30T17:12:23.144Z,6.23
2019-03-30T17:15:03.089Z,6.70
2019-03-30T17:24:05.424Z,8.30
2019-03-30T17:26:52.365Z,6.37
2019-03-30T17:29:25.244Z,6.40
2019-03-30T17:31:58.622Z,5.70
2019-03-30T17:34:32.521Z,6.23
2019-03-30T17:37:06.728Z,7.30
2019-03-30T17:39:41.696Z,7.30
2019-03-30T17:42:21.352Z,8.73
2019-03-30T17:44:55.984Z,11.50
2019-03-30T17:47:32.112Z,12.17
2019-03-30T17:50:13.060Z,12.07
2019-03-30T17:52:50.443Z,11.33
2019-03-30T17:55:33.532Z,10.00
2019-03-30T17:58:11.932Z,10.43
2019-03-30T18:00:31.267Z,9.97
2019-03-30T18:03:08.030Z,10.73
2019-03-30T18:05:40.761Z,10.30
2019-03-30T18:08:17.917Z,11.67
2019-03-30T18:11:04.020Z,11.00
2019-03-30T18:13:44.716Z,11.20
2019-03-30T18:16:22.406Z,11.37
2019-03-30T18:18:55.974Z,12.23
2019-03-30T18:21:31.618Z,11.17
2019-03-30T18:24:03.671Z,12.47
2019-03-30T18:26:41.078Z,14.63
2019-03-30T18:29:19.065Z,15.97
2019-03-30T18:31:57.605Z,15.43
2019-03-30T18:34:31.046Z,14.00
2019-03-30T18:37:15.772Z,12.80
2019-03-30T18:39:46.484Z,12.87
2019-03-30T18:42:19.169Z,11.40
2019-03-30T18:44:56.396Z,13.30
2019-03-30T18:47:27.915Z,13.50
2019-03-30T18:49:59.603Z,11.40
2019-03-30T18:52:31.174Z,11.40
2019-03-30T18:55:03.527Z,10.90
2019-03-30T18:57:40.986Z,10.20
2019-03-30T19:00:24.566Z,12.23
2019-03-30T19:05:53.078Z,17.30
2019-03-30T19:08:25.122Z,14.53
2019-03-30T19:10:56.287Z,14.37
2019-03-30T19:13:36.033Z,13.93
2019-03-30T19:16:07.220Z,12.30
2019-03-30T19:18:57.292Z,11.20
2019-03-30T19:21:32.806Z,9.17
2019-03-30T19:24:23.381Z,9.30
2019-03-30T19:26:57.224Z,9.43
2019-03-30T19:29:30.567Z,8.07
2019-03-30T19:32:04.048Z,6.53
2019-03-30T19:34:40.820Z,5.73
2019-03-30T19:37:11.088Z,5.27
2019-03-30T19:39:45.606Z,6.13
2019-03-30T19:42:23.249Z,6.13
2019-03-30T19:45:12.064Z,4.93
2019-03-30T19:47:51.376Z,4.40
2019-03-30T19:50:22.357Z,4.90
2019-03-30T19:52:55.308Z,6.63
2019-03-30T19:55:30.857Z,6.40
2019-03-30T20:17:35.458Z,11.37
2019-03-30T20:20:17.908Z,12.33
2019-03-30T20:25:45.600Z,18.90
2019-03-30T20:31:26.379Z,23.27
2019-03-30T20:37:10.939Z,22.10
2019-03-30T20:40:05.779Z,21.60
2019-03-30T20:46:04.572Z,24.17
2019-03-30T20:48:43.888Z,29.10
2019-03-30T20:54:16.592Z,29.33
2019-03-30T20:56:55.419Z,27.57
2019-03-30T20:59:39.772Z,24.10
2019-03-30T21:23:50.946Z,29.10
2019-03-30T21:26:28.757Z,23.07
2019-03-30T21:29:10.071Z,22.30
2019-03-30T21:31:49.134Z,23.00
2019-03-30T21:34:27.411Z,19.33
2019-03-30T21:40:16.288Z,30.60
2019-03-30T21:46:07.386Z,30.20
2019-03-30T21:48:53.930Z,30.63
2019-03-30T21:51:33.744Z,32.53
2019-03-30T21:54:19.613Z,27.67
